Time,TemperatureF,DewpointF,PressureIn,WindDirection,WindDirectionDegrees,WindSpeedMPH,WindSpeedGustMPH,Humidity,HourlyPrecipIn,Conditions,Clouds,dailyrainin,SoftwareType,DateUTC
2013-04-21 00:00:00,49.1,45.4,30.11,North,-999,0.0,0.0,87,0.00,,,-99.99,WeatherLink 5.6,2013-04-21 05:00:00,
2013-04-21 00:30:00,48.9,44.9,30.10,NE,45,0.0,4.0,86,0.00,,,-99.99,WeatherLink 5.6,2013-04-21 05:30:00,
2013-04-21 01:00:00,49.5,44.6,30.09,ENE,67,0.0,4.0,83,0.00,,,-99.99,WeatherLink 5.6,2013-04-21 06:00:00,
2013-04-21 01:30:00,50.2,43.9,30.09,ENE,67,0.0,3.0,79,0.00,,,-99.99,WeatherLink 5.6,2013-04-21 06:30:00,
2013-04-21 02:00:00,49.5,43.6,30.08,ENE,67,0.0,3.0,80,0.00,,,-99.99,WeatherLink 5.6,2013-04-21 07:00:00,
2013-04-21 02:30:00,48.6,43.7,30.07,ENE,67,0.0,3.0,83,0.00,,,-99.99,WeatherLink 5.6,2013-04-21 07:30:00,
2013-04-21 03:00:00,47.4,43.1,30.08,ENE,67,0.0,4.0,85,0.00,,,-99.99,WeatherLink 5.6,2013-04-21 08:00:00,
2013-04-21 03:30:00,46.2,42.8,30.08,North,-999,0.0,0.0,88,0.00,,,-99.99,WeatherLink 5.6,2013-04-21 08:30:00,
2013-04-21 04:00:00,45.7,42.9,30.08,ENE,67,0.0,3.0,90,0.00,,,-99.99,WeatherLink 5.6,2013-04-21 09:00:00,
2013-04-21 04:30:00,45.1,42.6,30.08,ENE,67,0.0,2.0,91,0.00,,,-99.99,WeatherLink 5.6,2013-04-21 09:30:00,
2013-04-21 05:00:00,45.2,43.0,30.08,ENE,67,0.0,3.0,92,0.00,,,-99.99,WeatherLink 5.6,2013-04-21 10:00:00,
2013-04-21 05:30:00,45.4,42.9,30.09,ENE,67,0.0,3.0,91,0.00,,,-99.99,WeatherLink 5.6,2013-04-21 10:30:00,
2013-04-21 06:00:00,44.8,42.3,30.09,ENE,67,0.0,1.0,91,0.00,,,-99.99,WeatherLink 5.6,2013-04-21 11:00:00,
2013-04-21 06:30:00,44.3,42.1,30.09,ENE,67,0.0,2.0,92,0.00,,,-99.99,WeatherLink 5.6,2013-04-21 11:30:00,
2013-04-21 07:00:00,46.0,42.9,30.09,ENE,67,0.0,4.0,89,0.00,,,-99.99,WeatherLink 5.6,2013-04-21 12:00:00,
2013-04-21 07:30:00,48.6,43.4,30.09,NE,45,1.0,7.0,82,0.00,,,-99.99,WeatherLink 5.6,2013-04-21 12:30:00,
2013-04-21 08:00:00,52.9,44.5,30.10,ENE,67,2.0,9.0,73,0.00,,,-99.99,WeatherLink 5.6,2013-04-21 13:00:00,
2013-04-21 08:30:00,56.3,46.3,30.11,ENE,67,2.0,9.0,69,0.00,,,-99.99,WeatherLink 5.6,2013-04-21 13:30:00,
2013-04-21 09:00:00,60.1,47.0,30.10,NE,45,2.0,10.0,62,0.00,,,-99.99,WeatherLink 5.6,2013-04-21 14:00:00,
2013-04-21 09:30:00,64.0,43.4,30.11,NE,45,4.0,10.0,47,0.00,,,-99.99,WeatherLink 5.6,2013-04-21 14:30:00,
2013-04-21 10:00:00,66.3,40.6,30.12,ENE,67,4.0,14.0,39,0.00,,,-99.99,WeatherLink 5.6,2013-04-21 15:00:00,
2013-04-21 10:30:00,66.9,41.8,30.12,ENE,67,6.0,18.0,40,0.00,,,-99.99,WeatherLink 5.6,2013-04-21 15:30:00,
2013-04-21 11:00:00,67.8,43.2,30.11,ENE,67,6.0,17.0,41,0.00,,,-99.99,WeatherLink 5.6,2013-04-21 16:00:00,
2013-04-21 11:30:00,69.3,42.6,30.12,ENE,67,6.0,16.0,38,0.00,,,-99.99,WeatherLink 5.6,2013-04-21 16:30:00,
2013-04-21 12:00:00,71.6,40.2,30.11,ENE,67,4.0,12.0,32,0.00,,,-99.99,WeatherLink 5.6,2013-04-21 17:00:00,
2013-04-21 12:30:00,70.4,41.4,30.11,ENE,67,5.0,14.0,35,0.00,,,-99.99,WeatherLink 5.6,2013-04-21 17:30:00,
2013-04-21 13:00:00,71.6,41.0,30.09,NE,45,3.0,12.0,33,0.00,,,-99.99,WeatherLink 5.6,2013-04-21 18:00:00,
2013-04-21 13:30:00,72.7,41.9,30.08,ENE,67,3.0,10.0,33,0.00,,,-99.99,WeatherLink 5.6,2013-04-21 18:30:00,
2013-04-21 14:00:00,73.7,43.6,30.07,ENE,67,2.0,13.0,34,0.00,,,-99.99,WeatherLink 5.6,2013-04-21 19:00:00,
2013-04-21 14:30:00,72.1,44.4,30.06,NE,45,4.0,14.0,37,0.00,,,-99.99,WeatherLink 5.6,2013-04-21 19:30:00,
2013-04-21 15:00:00,73.0,51.0,30.04,East,90,3.0,9.0,46,0.00,,,-99.99,WeatherLink 5.6,2013-04-21 20:00:00,
2013-04-21 15:30:00,72.5,52.2,30.03,ESE,112,2.0,11.0,49,0.00,,,-99.99,WeatherLink 5.6,2013-04-21 20:30:00,
2013-04-21 16:00:00,71.5,52.4,30.03,SE,135,3.0,13.0,51,0.00,,,-99.99,WeatherLink 5.6,2013-04-21 21:00:00,
2013-04-21 16:30:00,69.9,53.0,30.02,SE,135,5.0,16.0,55,0.00,,,-99.99,WeatherLink 5.6,2013-04-21 21:30:00,
2013-04-21 17:00:00,70.3,53.4,30.01,SE,135,4.0,13.0,55,0.00,,,-99.99,WeatherLink 5.6,2013-04-21 22:00:00,
2013-04-21 17:30:00,69.3,53.4,30.03,SE,135,4.0,12.0,57,0.00,,,-99.99,WeatherLink 5.6,2013-04-21 22:30:00,
2013-04-21 18:00:00,68.6,52.8,30.03,SE,135,4.0,12.0,57,0.00,,,-99.99,WeatherLink 5.6,2013-04-21 23:00:00,
2013-04-21 18:30:00,68.3,52.0,30.03,SSE,157,2.0,8.0,56,0.00,,,-99.99,WeatherLink 5.6,2013-04-21 23:30:00,
2013-04-21 19:00:00,66.6,52.3,30.03,SE,135,1.0,7.0,60,0.00,,,-99.99,WeatherLink 5.6,2013-04-22 00:00:00,
2013-04-21 19:30:00,65.2,52.7,30.03,SE,135,0.0,2.0,64,0.00,,,-99.99,WeatherLink 5.6,2013-04-22 00:30:00,
2013-04-21 20:00:00,62.9,53.4,30.04,North,-999,0.0,0.0,71,0.00,,,-99.99,WeatherLink 5.6,2013-04-22 01:00:00,
2013-04-21 20:30:00,60.7,53.8,30.05,North,-999,0.0,0.0,78,0.00,,,-99.99,WeatherLink 5.6,2013-04-22 01:30:00,
2013-04-21 21:00:00,58.7,53.5,30.05,North,-999,0.0,0.0,83,0.00,,,-99.99,WeatherLink 5.6,2013-04-22 02:00:00,
2013-04-21 21:30:00,57.5,53.7,30.06,North,-999,0.0,0.0,87,0.00,,,-99.99,WeatherLink 5.6,2013-04-22 02:30:00,
2013-04-21 22:00:00,56.2,53.0,30.06,North,-999,0.0,0.0,89,0.00,,,-99.99,WeatherLink 5.6,2013-04-22 03:00:00,
2013-04-21 22:30:00,55.4,52.8,30.06,North,-999,0.0,0.0,91,0.00,,,-99.99,WeatherLink 5.6,2013-04-22 03:30:00,
2013-04-21 23:00:00,54.7,52.4,30.05,North,-999,0.0,0.0,92,0.00,,,-99.99,WeatherLink 5.6,2013-04-22 04:00:00,
2013-04-21 23:30:00,54.1,52.1,30.04,North,-999,0.0,0.0,93,0.00,,,-99.99,WeatherLink 5.6,2013-04-22 04:30:00,